createdAt,value
2018-03-24T00:00:08.015Z,9.10
2018-03-24T00:02:35.647Z,5.47
2018-03-24T00:05:03.260Z,8.77
2018-03-24T00:07:31.629Z,7.70
2018-03-24T00:09:59.253Z,10.33
2018-03-24T00:12:26.856Z,7.10
2018-03-24T00:14:55.213Z,5.93
2018-03-24T00:17:23.748Z,10.47
2018-03-24T00:19:51.354Z,7.10
2018-03-24T00:22:20.457Z,6.60
2018-03-24T00:24:48.090Z,9.23
2018-03-24T00:27:15.686Z,8.00
2018-03-24T00:29:43.280Z,6.20
2018-03-24T00:32:10.931Z,8.60
2018-03-24T00:34:39.284Z,8.00
2018-03-24T00:37:08.395Z,13.20
2018-03-24T00:39:36.776Z,11.17
2018-03-24T00:42:05.139Z,14.07
2018-03-24T00:44:32.763Z,7.03
2018-03-24T00:47:00.353Z,11.10
2018-03-24T00:49:27.948Z,7.40
2018-03-24T00:51:55.572Z,9.37
2018-03-24T00:54:23.175Z,7.57
2018-03-24T00:56:50.811Z,9.47
2018-03-24T00:59:19.177Z,8.53
2018-03-24T01:01:46.764Z,8.90
2018-03-24T01:04:15.152Z,6.77
2018-03-24T01:06:42.742Z,8.50
2018-03-24T01:09:10.380Z,13.40
2018-03-24T01:11:37.968Z,9.37
2018-03-24T01:14:05.572Z,11.27
2018-03-24T01:16:33.956Z,11.20
2018-03-24T01:19:02.308Z,12.87
2018-03-24T01:21:29.929Z,9.83
2018-03-24T01:23:57.539Z,12.33
2018-03-24T01:26:25.137Z,9.17
2018-03-24T01:28:52.762Z,10.93
2018-03-24T01:31:20.355Z,15.67
2018-03-24T01:33:47.988Z,14.07
2018-03-24T01:36:15.583Z,10.60
2018-03-24T01:38:43.180Z,9.80
2018-03-24T01:41:10.800Z,11.90
2018-03-24T01:43:38.392Z,9.00
2018-03-24T01:46:06.016Z,13.53
2018-03-24T01:48:34.384Z,13.70
2018-03-24T01:51:02.777Z,14.07
2018-03-24T01:53:42.132Z,14.50
2018-03-24T01:56:09.760Z,12.80
2018-03-24T01:58:38.122Z,12.03
2018-03-24T02:01:05.749Z,17.47
2018-03-24T02:03:33.349Z,15.67
2018-03-24T02:06:00.968Z,12.10
2018-03-24T02:08:28.560Z,12.53
2018-03-24T02:10:56.936Z,8.80
2018-03-24T02:13:24.532Z,14.00
2018-03-24T02:15:52.152Z,12.17
2018-03-24T02:18:19.755Z,12.20
2018-03-24T02:20:47.377Z,15.50
2018-03-24T02:23:15.014Z,13.73
2018-03-24T02:25:42.632Z,14.90
2018-03-24T02:28:10.221Z,16.80
2018-03-24T02:30:37.836Z,13.20
2018-03-24T02:33:06.212Z,14.33
2018-03-24T02:35:34.610Z,17.17
2018-03-24T02:38:02.969Z,15.43
2018-03-24T02:40:31.379Z,9.20
2018-03-24T02:42:58.980Z,14.37
2018-03-24T02:45:26.596Z,16.97
2018-03-24T02:47:54.191Z,11.50
2018-03-24T02:50:21.831Z,10.93
2018-03-24T02:52:49.434Z,15.63
2018-03-24T02:55:17.071Z,13.43
2018-03-24T02:57:44.699Z,13.13
2018-03-24T03:00:12.309Z,12.40
2018-03-24T03:02:39.936Z,15.27
2018-03-24T03:05:07.525Z,10.63
2018-03-24T03:07:35.148Z,13.83
2018-03-24T03:10:02.741Z,12.00
2018-03-24T03:12:30.362Z,12.90
2018-03-24T03:14:57.954Z,14.60
2018-03-24T03:17:25.583Z,13.87
2018-03-24T03:19:53.180Z,19.47
2018-03-24T03:22:20.800Z,17.40
2018-03-24T03:24:49.157Z,10.07
2018-03-24T03:27:16.779Z,14.10
2018-03-24T03:29:44.373Z,15.00
2018-03-24T03:32:19.540Z,14.60
2018-03-24T03:34:47.895Z,12.63
2018-03-24T03:37:15.518Z,15.77
2018-03-24T03:39:43.136Z,14.37
2018-03-24T03:42:11.537Z,15.30
2018-03-24T03:44:39.132Z,12.60
2018-03-24T03:47:06.760Z,14.37
2018-03-24T03:49:34.351Z,12.63
2018-03-24T03:52:01.972Z,16.27
2018-03-24T03:54:29.556Z,13.93
2018-03-24T03:56:57.177Z,14.30
2018-03-24T03:59:25.542Z,15.50
2018-03-24T04:01:53.173Z,16.47
2018-03-24T04:04:20.770Z,17.50
2018-03-24T04:06:49.120Z,13.47
2018-03-24T04:09:16.752Z,13.27
2018-03-24T04:11:44.377Z,19.93
2018-03-24T04:14:12.735Z,23.57
2018-03-24T04:16:40.320Z,17.10
2018-03-24T04:19:08.735Z,13.00
2018-03-24T04:21:36.333Z,11.80
2018-03-24T04:24:03.960Z,15.10
2018-03-24T04:26:31.612Z,18.63
2018-03-24T04:28:59.220Z,16.27
2018-03-24T04:31:27.584Z,15.80
2018-03-24T04:33:55.208Z,20.20
2018-03-24T04:36:22.804Z,20.90
2018-03-24T04:38:50.427Z,19.57
2018-03-24T04:41:18.021Z,13.87
2018-03-24T04:43:45.644Z,19.13
2018-03-24T04:46:13.237Z,14.87
2018-03-24T04:48:40.868Z,20.17
2018-03-24T04:51:08.460Z,18.40
2018-03-24T04:53:36.080Z,16.07
2018-03-24T04:56:03.678Z,16.57
2018-03-24T04:58:31.296Z,18.40
2018-03-24T05:00:58.912Z,17.97
2018-03-24T05:03:27.326Z,21.13
2018-03-24T05:05:55.685Z,16.87
2018-03-24T05:08:23.281Z,21.03
2018-03-24T05:10:50.905Z,17.17
2018-03-24T05:13:18.497Z,16.67
2018-03-24T05:15:46.118Z,21.07
2018-03-24T05:18:13.712Z,20.67
2018-03-24T05:20:42.101Z,21.13
2018-03-24T05:23:09.699Z,16.07
2018-03-24T05:25:37.330Z,17.30
2018-03-24T05:28:04.924Z,19.80
2018-03-24T05:30:32.552Z,21.30
2018-03-24T05:33:00.156Z,20.83
2018-03-24T05:35:27.797Z,19.63
2018-03-24T05:37:55.392Z,20.20
2018-03-24T05:40:23.014Z,16.30
2018-03-24T05:42:50.623Z,19.67
2018-03-24T05:45:19.021Z,21.53
2018-03-24T05:47:46.627Z,18.93
2018-03-24T05:50:14.255Z,15.97
2018-03-24T05:52:41.864Z,21.97
2018-03-24T05:55:09.495Z,22.20
2018-03-24T05:57:37.094Z,22.57
2018-03-24T06:00:04.722Z,32.17
2018-03-24T06:02:32.322Z,21.10
2018-03-24T06:04:59.924Z,21.73
2018-03-24T06:07:27.557Z,19.97
2018-03-24T06:09:55.915Z,25.03
2018-03-24T06:12:23.529Z,20.93
2018-03-24T06:14:51.120Z,18.20
2018-03-24T06:17:18.736Z,13.90
2018-03-24T06:19:46.328Z,21.30
2018-03-24T06:22:13.956Z,17.20
2018-03-24T06:24:41.557Z,17.27
2018-03-24T06:27:09.180Z,21.80
2018-03-24T06:29:36.784Z,22.77
2018-03-24T06:32:04.901Z,21.70
2018-03-24T06:34:33.272Z,13.10
2018-03-24T06:37:02.580Z,22.17
2018-03-24T06:39:30.941Z,13.60
2018-03-24T06:41:58.558Z,19.10
2018-03-24T06:44:26.187Z,22.07
2018-03-24T06:46:54.566Z,20.30
2018-03-24T06:49:22.176Z,21.43
2018-03-24T06:51:49.805Z,19.93
2018-03-24T06:54:17.404Z,21.40
2018-03-24T06:56:45.037Z,19.47
2018-03-24T06:59:12.628Z,23.53
2018-03-24T07:01:41.740Z,14.57
2018-03-24T07:04:09.361Z,22.20
2018-03-24T07:06:36.954Z,18.87
2018-03-24T07:09:04.608Z,23.40
2018-03-24T07:11:32.988Z,19.80
2018-03-24T07:14:00.608Z,19.00
2018-03-24T07:16:28.215Z,21.20
2018-03-24T07:18:56.604Z,20.17
2018-03-24T07:21:24.990Z,19.40
2018-03-24T07:23:53.381Z,20.27
2018-03-24T07:26:21.743Z,23.13
2018-03-24T07:28:50.136Z,19.03
2018-03-24T07:31:18.500Z,19.80
2018-03-24T07:33:46.892Z,18.43
2018-03-24T07:36:15.254Z,24.60
2018-03-24T07:38:43.667Z,19.00
2018-03-24T07:41:11.268Z,23.37
2018-03-24T07:43:38.890Z,19.30
2018-03-24T07:46:06.493Z,17.77
2018-03-24T07:48:34.125Z,26.10
2018-03-24T07:51:01.748Z,24.63
2018-03-24T07:53:30.121Z,22.73
2018-03-24T07:55:58.519Z,21.20
2018-03-24T07:58:26.118Z,16.57
2018-03-24T08:00:53.774Z,27.10
2018-03-24T08:03:21.405Z,16.93
2018-03-24T08:05:49.017Z,17.97
2018-03-24T08:08:16.656Z,21.97
2018-03-24T08:10:44.256Z,20.87
2018-03-24T08:13:11.860Z,19.97
2018-03-24T08:15:39.480Z,16.53
2018-03-24T08:18:07.076Z,20.50
2018-03-24T08:20:34.708Z,20.60
2018-03-24T08:23:03.084Z,25.27
2018-03-24T08:25:31.481Z,21.67
2018-03-24T08:27:59.844Z,21.87
2018-03-24T08:30:28.299Z,28.23
2018-03-24T08:32:55.881Z,28.13
2018-03-24T08:35:23.512Z,23.67
2018-03-24T08:37:52.824Z,22.70
2018-03-24T08:40:21.340Z,21.57
2018-03-24T08:42:49.979Z,27.10
2018-03-24T08:45:17.605Z,24.00
2018-03-24T08:47:45.201Z,24.77
2018-03-24T08:50:12.819Z,18.00
2018-03-24T08:52:40.423Z,18.40
2018-03-24T08:55:08.052Z,21.90
2018-03-24T08:57:35.651Z,24.10
2018-03-24T09:00:03.280Z,24.43
2018-03-24T09:02:30.977Z,19.43
2018-03-24T09:04:59.402Z,23.20
2018-03-24T09:07:27.004Z,20.17
2018-03-24T09:09:54.600Z,25.73
2018-03-24T09:12:22.991Z,21.37
2018-03-24T09:14:51.353Z,26.57
2018-03-24T09:17:19.006Z,22.73
2018-03-24T09:19:46.613Z,20.57
2018-03-24T09:22:14.245Z,19.60
2018-03-24T09:24:42.614Z,28.43
2018-03-24T09:27:10.247Z,16.67
2018-03-24T09:29:37.860Z,20.97
2018-03-24T09:32:06.246Z,27.50
2018-03-24T09:34:33.856Z,20.97
2018-03-24T09:37:01.510Z,24.50
2018-03-24T09:39:29.104Z,28.87
2018-03-24T09:41:57.503Z,25.80
2018-03-24T09:44:25.178Z,31.93
2018-03-24T09:46:52.808Z,32.43
2018-03-24T09:49:21.172Z,25.10
2018-03-24T09:51:49.425Z,31.40
2018-03-24T09:54:17.974Z,22.10
2018-03-24T09:56:45.601Z,26.17
2018-03-24T09:59:13.208Z,23.67
2018-03-24T10:01:41.033Z,26.00
2018-03-24T10:04:09.434Z,32.17
2018-03-24T10:06:37.092Z,22.10
2018-03-24T10:09:04.697Z,22.30
2018-03-24T10:11:32.365Z,23.00
2018-03-24T10:13:59.969Z,24.67
2018-03-24T10:16:27.572Z,20.00
2018-03-24T10:18:55.220Z,39.23
2018-03-24T10:24:26.906Z,28.30
2018-03-24T10:26:54.519Z,32.20
2018-03-24T10:29:22.908Z,28.70
2018-03-24T10:31:51.551Z,23.80
2018-03-24T10:34:19.320Z,31.97
2018-03-24T10:36:47.072Z,37.60
2018-03-24T10:39:14.760Z,26.90
2018-03-24T10:41:42.486Z,32.03
2018-03-24T10:44:10.186Z,21.60
2018-03-24T10:46:37.930Z,23.47
2018-03-24T10:49:05.798Z,34.87
2018-03-24T10:51:33.557Z,27.40
2018-03-24T10:54:01.196Z,24.70
2018-03-24T10:56:28.841Z,27.50
2018-03-24T10:58:57.017Z,23.93
2018-03-24T11:01:24.716Z,25.00
2018-03-24T11:03:52.488Z,24.73
2018-03-24T11:06:20.354Z,16.90
2018-03-24T11:08:48.008Z,25.47
2018-03-24T11:11:15.694Z,19.13
2018-03-24T11:13:43.424Z,20.50
2018-03-24T11:16:11.104Z,21.40
2018-03-24T11:18:38.855Z,19.50
2018-03-24T11:21:06.523Z,18.27
2018-03-24T11:23:34.183Z,17.60
2018-03-24T11:26:01.868Z,20.00
2018-03-24T11:28:29.702Z,13.90
2018-03-24T11:30:57.579Z,18.13
2018-03-24T11:33:25.413Z,16.80
2018-03-24T11:35:53.028Z,17.60
2018-03-24T11:38:20.789Z,16.13
2018-03-24T11:40:48.538Z,22.70
2018-03-24T11:43:16.189Z,13.80
2018-03-24T11:45:43.892Z,13.87
2018-03-24T11:48:12.451Z,19.27
2018-03-24T11:50:40.247Z,17.43
2018-03-24T11:53:08.801Z,13.90
2018-03-24T11:55:37.477Z,13.17
2018-03-24T11:58:05.173Z,13.73
2018-03-24T12:00:33.661Z,15.10
2018-03-24T12:03:02.099Z,18.40
2018-03-24T12:05:29.872Z,18.57
2018-03-24T12:07:57.630Z,14.70
2018-03-24T12:10:25.331Z,14.13
2018-03-24T12:12:53.780Z,14.67
2018-03-24T12:15:21.647Z,11.37
2018-03-24T12:17:49.409Z,14.23
2018-03-24T12:20:17.062Z,13.60
2018-03-24T12:22:44.726Z,9.23
2018-03-24T12:25:12.480Z,15.67
2018-03-24T12:27:40.163Z,14.90
2018-03-24T12:30:07.951Z,16.57
2018-03-24T12:32:36.417Z,11.37
2018-03-24T12:35:04.105Z,17.80
2018-03-24T12:37:32.632Z,14.10
2018-03-24T12:40:00.499Z,20.60
2018-03-24T12:42:28.152Z,13.27
2018-03-24T12:44:55.841Z,12.80
2018-03-24T12:47:23.577Z,13.33
2018-03-24T12:49:51.243Z,14.90
2018-03-24T12:52:18.871Z,9.60
2018-03-24T12:54:47.403Z,12.40
2018-03-24T12:57:15.092Z,11.30
2018-03-24T12:59:42.847Z,10.70
2018-03-24T13:02:10.591Z,14.40
2018-03-24T13:04:38.348Z,8.97
2018-03-24T13:07:06.034Z,15.73
2018-03-24T13:09:33.892Z,12.50
2018-03-24T13:12:01.669Z,13.93
2018-03-24T13:14:29.435Z,11.80
2018-03-24T13:16:57.904Z,9.90
2018-03-24T13:19:25.766Z,16.63
2018-03-24T13:21:53.540Z,12.40
2018-03-24T13:24:22.817Z,9.30
2018-03-24T13:26:50.595Z,11.90
2018-03-24T13:29:18.462Z,9.30
2018-03-24T13:31:46.269Z,10.27
2018-03-24T13:34:14.002Z,11.50
2018-03-24T13:36:41.784Z,8.07
2018-03-24T13:39:09.504Z,10.40
2018-03-24T13:41:37.285Z,9.13
2018-03-24T13:44:05.047Z,9.70
2018-03-24T13:46:32.918Z,9.93
2018-03-24T13:49:00.793Z,11.17
2018-03-24T13:51:28.548Z,10.60
2018-03-24T13:53:56.333Z,10.03
2018-03-24T13:56:23.965Z,12.13
2018-03-24T13:58:51.734Z,11.00
2018-03-24T14:01:19.389Z,8.77
2018-03-24T14:03:47.158Z,7.50
2018-03-24T14:06:14.772Z,11.33
2018-03-24T14:08:43.312Z,9.23
2018-03-24T14:11:11.077Z,13.73
2018-03-24T14:13:38.921Z,8.30
2018-03-24T14:16:06.618Z,14.97
2018-03-24T14:18:34.253Z,10.43
2018-03-24T14:21:01.942Z,11.30
2018-03-24T14:23:29.672Z,7.37
2018-03-24T14:25:57.375Z,10.50
2018-03-24T14:28:25.968Z,10.87
2018-03-24T14:30:54.412Z,14.33
2018-03-24T14:33:22.106Z,12.93
2018-03-24T14:35:50.563Z,13.33
2018-03-24T14:38:18.429Z,6.13
2018-03-24T14:40:46.100Z,9.20
2018-03-24T14:43:13.727Z,7.33
2018-03-24T14:45:41.509Z,12.03
2018-03-24T14:48:09.288Z,13.70
2018-03-24T14:50:37.248Z,15.00
2018-03-24T14:53:04.934Z,11.40
2018-03-24T14:55:32.757Z,9.50
2018-03-24T14:58:00.497Z,12.57
2018-03-24T15:00:28.199Z,9.50
2018-03-24T15:02:55.958Z,11.03
2018-03-24T15:05:23.735Z,14.33
2018-03-24T15:07:51.373Z,16.60
2018-03-24T15:10:19.195Z,14.87
2018-03-24T15:12:47.725Z,12.47
2018-03-24T15:15:15.509Z,12.63
2018-03-24T15:17:43.152Z,16.73
2018-03-24T15:20:11.031Z,11.90
2018-03-24T15:22:38.783Z,12.67
2018-03-24T15:25:06.382Z,12.40
2018-03-24T15:27:34.227Z,10.03
2018-03-24T15:30:13.810Z,15.60
2018-03-24T15:32:53.208Z,12.77
2018-03-24T15:35:31.926Z,15.00
2018-03-24T15:37:59.796Z,13.70
2018-03-24T15:40:27.655Z,8.77
2018-03-24T15:42:55.526Z,9.43
2018-03-24T15:45:23.212Z,14.57
2018-03-24T15:47:50.934Z,9.13
2018-03-24T15:50:18.697Z,10.97
2018-03-24T15:52:46.375Z,7.37
2018-03-24T15:55:14.034Z,8.70
2018-03-24T15:57:41.730Z,10.63
2018-03-24T16:00:10.315Z,8.30
2018-03-24T16:02:38.792Z,8.20
2018-03-24T16:05:07.236Z,9.17
2018-03-24T16:07:34.945Z,9.20
2018-03-24T16:10:03.383Z,9.90
2018-03-24T16:12:31.138Z,9.17
2018-03-24T16:14:58.920Z,11.80
2018-03-24T16:17:26.683Z,12.20
2018-03-24T16:19:54.480Z,12.97
2018-03-24T16:22:22.865Z,9.30
2018-03-24T16:24:50.674Z,13.70
2018-03-24T16:27:18.458Z,13.93
2018-03-24T16:29:46.162Z,11.00
2018-03-24T16:32:14.526Z,12.83
2018-03-24T16:34:43.186Z,15.73
2018-03-24T16:37:10.972Z,12.00
2018-03-24T16:39:38.633Z,11.40
2018-03-24T16:42:06.273Z,8.27
2018-03-24T16:44:34.022Z,9.67
2018-03-24T16:47:01.695Z,12.60
2018-03-24T16:49:29.545Z,7.50
2018-03-24T16:51:57.248Z,10.33
2018-03-24T16:54:24.891Z,12.67
2018-03-24T16:56:52.568Z,14.37
2018-03-24T16:59:20.312Z,8.60
2018-03-24T17:01:47.994Z,14.53
2018-03-24T17:04:15.584Z,9.40
2018-03-24T17:06:43.385Z,13.43
2018-03-24T17:09:11.105Z,13.23
2018-03-24T17:11:39.616Z,10.50
2018-03-24T17:14:08.233Z,11.67
2018-03-24T17:16:35.993Z,13.77
2018-03-24T17:19:03.677Z,17.67
2018-03-24T17:21:32.094Z,12.20
2018-03-24T17:23:59.897Z,10.30
2018-03-24T17:26:27.550Z,12.50
2018-03-24T17:28:55.207Z,13.80
2018-03-24T17:31:23.044Z,14.17
2018-03-24T17:33:50.677Z,13.93
2018-03-24T17:36:19.115Z,11.20
2018-03-24T17:38:46.797Z,12.03
2018-03-24T17:41:14.454Z,14.93
2018-03-24T17:43:42.113Z,12.90
2018-03-24T17:46:09.882Z,13.87
2018-03-24T17:48:37.535Z,15.33
2018-03-24T17:51:05.201Z,14.50
2018-03-24T17:53:33.020Z,12.30
2018-03-24T17:56:01.469Z,10.20
2018-03-24T17:58:29.114Z,9.63
2018-03-24T18:00:56.871Z,13.77
2018-03-24T18:03:24.541Z,14.47
2018-03-24T18:05:52.330Z,11.03
2018-03-24T18:08:20.773Z,10.37
2018-03-24T18:10:48.400Z,11.83
2018-03-24T18:13:15.999Z,10.73
2018-03-24T18:15:43.644Z,10.83
2018-03-24T18:18:11.348Z,11.67
2018-03-24T18:20:38.976Z,10.93
2018-03-24T18:23:06.580Z,10.57
2018-03-24T18:25:34.196Z,8.90
2018-03-24T18:28:01.789Z,14.53
2018-03-24T18:30:29.408Z,10.23
2018-03-24T18:32:57.009Z,12.77
2018-03-24T18:35:24.817Z,11.67
2018-03-24T18:37:52.587Z,12.97
2018-03-24T18:40:20.395Z,10.10
2018-03-24T18:42:48.364Z,13.03
2018-03-24T18:45:16.185Z,13.53
2018-03-24T18:47:43.992Z,11.53
2018-03-24T18:50:11.856Z,10.00
2018-03-24T18:52:39.727Z,19.17
2018-03-24T18:55:07.598Z,11.60
2018-03-24T18:57:36.847Z,11.00
2018-03-24T19:00:04.765Z,14.03
2018-03-24T19:02:32.487Z,14.37
2018-03-24T19:05:00.387Z,12.70
2018-03-24T19:07:28.254Z,13.83
2018-03-24T19:09:55.874Z,13.00
2018-03-24T19:12:23.498Z,7.47
2018-03-24T19:14:51.124Z,13.60
2018-03-24T19:17:18.715Z,12.40
2018-03-24T19:19:46.345Z,10.00
2018-03-24T19:22:13.945Z,9.10
2018-03-24T19:24:41.565Z,15.43
2018-03-24T19:27:09.149Z,9.60
2018-03-24T19:29:36.770Z,11.23
2018-03-24T19:32:04.369Z,10.10
2018-03-24T19:34:31.985Z,7.17
2018-03-24T19:36:59.578Z,9.77
2018-03-24T19:39:27.224Z,12.43
2018-03-24T19:41:54.823Z,12.40
2018-03-24T19:44:22.416Z,13.50
2018-03-24T19:46:50.093Z,11.97
2018-03-24T19:49:17.703Z,14.10
2018-03-24T19:51:45.330Z,11.53
2018-03-24T19:54:12.923Z,9.73
2018-03-24T19:56:40.550Z,8.03
2018-03-24T19:59:08.168Z,9.67
2018-03-24T20:01:36.524Z,11.30
2018-03-24T20:04:04.790Z,10.60
2018-03-24T20:06:32.433Z,11.53
2018-03-24T20:09:00.064Z,14.90
2018-03-24T20:11:27.665Z,12.77
2018-03-24T20:13:55.298Z,17.47
2018-03-24T20:16:22.889Z,13.60
2018-03-24T20:18:50.569Z,12.03
2018-03-24T20:21:18.172Z,11.67
2018-03-24T20:23:45.788Z,9.83
2018-03-24T20:26:13.384Z,13.73
2018-03-24T20:28:41.013Z,11.67
2018-03-24T20:31:08.609Z,13.30
2018-03-24T20:33:36.285Z,22.30
2018-03-24T20:36:04.632Z,13.40
2018-03-24T20:38:33.121Z,11.47
2018-03-24T20:41:01.504Z,13.40
2018-03-24T20:43:29.868Z,21.90
2018-03-24T20:45:58.261Z,16.70
2018-03-24T20:48:26.121Z,16.77
2018-03-24T20:50:55.060Z,15.30
2018-03-24T20:53:23.156Z,13.60
2018-03-24T20:55:51.549Z,10.43
2018-03-24T20:58:19.156Z,13.03
2018-03-24T21:00:46.792Z,11.90
2018-03-24T21:03:15.168Z,16.90
2018-03-24T21:05:43.577Z,17.63
2018-03-24T21:08:11.178Z,15.40
2018-03-24T21:10:38.912Z,12.13
2018-03-24T21:13:06.538Z,14.80
2018-03-24T21:15:34.185Z,19.43
2018-03-24T21:18:02.542Z,12.90
2018-03-24T21:20:31.664Z,17.53
2018-03-24T21:23:00.029Z,11.77
2018-03-24T21:25:28.419Z,11.63
2018-03-24T21:27:56.784Z,14.27
2018-03-24T21:30:24.512Z,12.13
2018-03-24T21:32:52.116Z,19.87
2018-03-24T21:35:20.516Z,10.73
2018-03-24T21:37:48.115Z,11.17
2018-03-24T21:40:15.753Z,16.10
2018-03-24T21:42:43.437Z,14.73
2018-03-24T21:45:11.020Z,16.03
2018-03-24T21:47:38.820Z,15.13
2018-03-24T21:50:06.445Z,13.70
2018-03-24T21:52:34.078Z,14.83
2018-03-24T21:55:01.951Z,16.10
2018-03-24T21:57:29.609Z,16.40
2018-03-24T21:59:57.196Z,16.33
2018-03-24T22:02:24.819Z,11.57
2018-03-24T22:04:52.425Z,12.83
2018-03-24T22:07:20.387Z,15.33
2018-03-24T22:09:48.005Z,18.60
2018-03-24T22:12:15.664Z,17.77
2018-03-24T22:14:43.353Z,15.70
2018-03-24T22:17:10.973Z,13.17
2018-03-24T22:19:38.583Z,16.23
2018-03-24T22:22:06.236Z,15.77
2018-03-24T22:24:33.844Z,21.10
2018-03-24T22:27:02.271Z,24.53
2018-03-24T22:29:29.880Z,23.33
2018-03-24T22:31:58.265Z,16.30
2018-03-24T22:34:26.622Z,12.80
2018-03-24T22:36:54.273Z,12.90
2018-03-24T22:39:21.872Z,19.63
2018-03-24T22:41:49.502Z,20.20
2018-03-24T22:44:18.647Z,18.57
2018-03-24T22:46:46.244Z,20.73
2018-03-24T22:49:13.848Z,23.50
2018-03-24T22:51:42.240Z,13.90
2018-03-24T22:54:09.829Z,15.70
2018-03-24T22:56:37.478Z,13.97
2018-03-24T22:59:05.089Z,11.17
2018-03-24T23:01:32.736Z,17.20
2018-03-24T23:04:00.328Z,15.37
2018-03-24T23:06:28.702Z,21.87
2018-03-24T23:08:57.098Z,19.70
2018-03-24T23:11:24.694Z,16.07
2018-03-24T23:13:52.318Z,16.40
2018-03-24T23:16:20.631Z,18.37
2018-03-24T23:18:48.238Z,18.87
2018-03-24T23:21:16.608Z,20.00
2018-03-24T23:23:44.250Z,23.53
2018-03-24T23:26:11.854Z,22.63
2018-03-24T23:28:39.479Z,21.60
2018-03-24T23:31:07.096Z,22.10
2018-03-24T23:33:34.714Z,21.70
2018-03-24T23:36:02.391Z,19.47
2018-03-24T23:38:30.853Z,22.70
2018-03-24T23:40:58.477Z,25.13
2018-03-24T23:43:26.112Z,22.00
2018-03-24T23:45:53.776Z,21.17
2018-03-24T23:48:21.369Z,25.30
2018-03-24T23:50:48.992Z,21.90
2018-03-24T23:53:17.123Z,19.87
2018-03-24T23:55:44.756Z,26.57
2018-03-24T23:58:12.364Z,17.03
